Time;durP1;ratioP1;P1;durP2;ratioP2;P2;SDS_P1;SDS_P2;PMS_P1;PMS_P2;Temp;Humidity;BMP_temperature;BMP_pressure;BME280_temperature;BME280_humidity;BME280_pressure;Samples;Min_cycle;Max_cycle;Signal;HPM_P1;HPM_P2
2023/07/22 00:00:05;;;;;;;;;;;;;;;14.97;71.88;101349.03;4923477;29;19926;-77
2023/07/22 00:02:30;;;;;;;;;;;;;;;14.96;71.35;101342.81;4923521;29;20025;-77
2023/07/22 00:04:56;;;;;;;;;;;;;;;14.92;72.34;101340.28;4938446;29;19983;-77
2023/07/22 00:07:21;;;;;;;;;;;;;;;14.87;72.77;101340.44;4955972;29;20076;-78
2023/07/22 00:09:49;;;;;;;;;;;;;;;14.88;73.56;101343.97;4953802;29;19922;-77
2023/07/22 00:12:15;;;;;;;;;;;;;;;14.85;73.89;101339.59;4955508;29;19923;-78
2023/07/22 00:14:41;;;;;;;;;;;;;;;14.86;72.82;101340.47;4955560;29;20017;-77
2023/07/22 00:17:07;;;;;;;;;;;;;;;14.87;71.92;101342.25;4955593;29;19923;-78
2023/07/22 00:19:33;;;;;;;;;;;;;;;14.87;73.30;101351.09;4955481;28;19999;-77
2023/07/22 00:21:59;;;;;;;;;;;;;;;14.88;72.92;101339.50;4938634;29;20507;-77
2023/07/22 00:24:24;;;;;;;;;;;;;;;14.89;73.83;101337.75;4922122;29;19926;-78
2023/07/22 00:26:50;;;;;;;;;;;;;;;14.90;73.01;101339.47;4922690;29;19930;-78
2023/07/22 00:29:16;;;;;;;;;;;;;;;14.87;74.42;101348.44;4938128;29;19922;-77
2023/07/22 00:31:41;;;;;;;;;;;;;;;14.84;74.97;101345.88;4938303;29;19919;-78
2023/07/22 00:34:06;;;;;;;;;;;;;;;14.81;78.21;101348.63;4943909;29;19926;-75
2023/07/22 00:36:32;;;;;;;;;;;;;;;14.75;81.14;101347.03;4936074;29;19996;-77
2023/07/22 00:38:57;;;;;;;;;;;;;;;14.67;82.14;101351.72;4954026;29;19961;-76
2023/07/22 00:41:23;;;;;;;;;;;;;;;14.65;78.84;101353.56;4920533;29;19922;-79
2023/07/22 00:43:48;;;;;;;;;;;;;;;14.62;78.09;101345.66;4947046;29;19923;-78
2023/07/22 00:46:14;;;;;;;;;;;;;;;14.55;77.22;101338.78;4912971;29;19934;-79
2023/07/22 00:48:39;;;;;;;;;;;;;;;14.47;77.86;101333.66;4919308;29;20393;-79
2023/07/22 00:51:05;;;;;;;;;;;;;;;14.40;78.57;101327.63;4936277;29;19926;-79
2023/07/22 00:53:30;;;;;;;;;;;;;;;14.38;77.85;101329.44;4925508;29;19951;-80
2023/07/22 00:55:55;;;;;;;;;;;;;;;14.36;80.62;101317.97;4949989;29;19974;-80
2023/07/22 00:58:21;;;;;;;;;;;;;;;14.35;78.60;101328.69;4911537;29;20382;-81
2023/07/22 01:00:48;;;;;;;;;;;;;;;14.32;79.01;101326.13;4903766;29;19986;-81
2023/07/22 01:03:13;;;;;;;;;;;;;;;14.33;80.74;101322.53;4919254;29;19919;-81
2023/07/22 01:05:39;;;;;;;;;;;;;;;14.29;79.78;101324.41;4949766;29;19918;-81
2023/07/22 01:08:05;;;;;;;;;;;;;;;14.29;77.73;101326.19;4915566;29;19926;-82
2023/07/22 01:10:30;;;;;;;;;;;;;;;14.28;77.83;101332.44;4919570;29;20343;-81
2023/07/22 01:12:56;;;;;;;;;;;;;;;14.26;77.78;101329.81;4938566;29;19918;-81
2023/07/22 01:15:22;;;;;;;;;;;;;;;14.24;78.23;101322.78;4944282;29;19922;-82
2023/07/22 01:17:47;;;;;;;;;;;;;;;14.23;79.27;101323.72;4936207;29;19926;-81
2023/07/22 01:20:13;;;;;;;;;;;;;;;14.23;79.74;101318.38;4919223;29;20294;-82
2023/07/22 01:22:41;;;;;;;;;;;;;;;14.24;79.35;101318.31;4936380;29;19969;-82
2023/07/22 01:25:07;;;;;;;;;;;;;;;14.24;80.38;101313.00;4949559;28;19922;-82
2023/07/22 01:27:32;;;;;;;;;;;;;;;14.22;79.47;101316.63;4974821;28;19918;-82
2023/07/22 01:29:58;;;;;;;;;;;;;;;14.22;79.61;101313.97;4951516;29;19923;-82
2023/07/22 01:32:23;;;;;;;;;;;;;;;14.22;78.95;101308.63;4955308;29;20437;-82
2023/07/22 01:34:49;;;;;;;;;;;;;;;14.22;80.56;101317.53;4955286;28;19937;-82
2023/07/22 01:37:14;;;;;;;;;;;;;;;14.22;79.28;101309.53;4954099;29;19923;-82
2023/07/22 01:39:39;;;;;;;;;;;;;;;14.22;77.05;101313.97;4922116;29;20368;-81
2023/07/22 01:42:05;;;;;;;;;;;;;;;14.20;77.61;101304.25;4953853;29;19923;-82
2023/07/22 01:44:30;;;;;;;;;;;;;;;14.22;80.39;101313.97;4959932;28;19927;-82
2023/07/22 01:46:56;;;;;;;;;;;;;;;14.22;79.47;101308.63;4953906;29;19922;-82
2023/07/22 01:49:21;;;;;;;;;;;;;;;14.19;79.48;101305.16;4937834;29;19933;-81
2023/07/22 01:51:46;;;;;;;;;;;;;;;14.16;80.00;101304.38;4954074;29;20009;-82
2023/07/22 01:54:12;;;;;;;;;;;;;;;14.13;80.57;101305.34;4955180;29;19926;-82
2023/07/22 01:56:38;;;;;;;;;;;;;;;14.06;79.75;101301.09;4956163;29;20304;-82
2023/07/22 01:59:04;;;;;;;;;;;;;;;14.04;81.10;101302.06;4938901;28;19997;-82
2023/07/22 02:01:29;;;;;;;;;;;;;;;13.98;81.52;101298.66;4949025;28;19922;-82
2023/07/22 02:03:55;;;;;;;;;;;;;;;13.98;80.42;101297.78;4959161;28;20018;-82
2023/07/22 02:06:21;;;;;;;;;;;;;;;14.01;78.34;101296.84;4961824;28;19926;-82
2023/07/22 02:08:46;;;;;;;;;;;;;;;13.99;79.17;101296.88;4957842;29;19922;-82
2023/07/22 02:11:12;;;;;;;;;;;;;;;13.97;79.90;101304.03;4949992;28;20381;-82
2023/07/22 02:13:37;;;;;;;;;;;;;;;13.92;79.36;101293.53;4949667;29;19958;-78
2023/07/22 02:16:03;;;;;;;;;;;;;;;13.89;80.40;101300.72;4924825;29;19922;-79
2023/07/22 02:18:29;;;;;;;;;;;;;;;13.87;78.27;101300.78;4940767;29;20289;-78
2023/07/22 02:20:55;;;;;;;;;;;;;;;13.88;79.94;101299.84;4956592;29;19926;-78
2023/07/22 02:23:20;;;;;;;;;;;;;;;13.90;79.96;101294.50;4957943;29;20017;-79
2023/07/22 02:25:49;;;;;;;;;;;;;;;13.89;79.48;101290.06;4956813;29;19927;-78
2023/07/22 02:28:15;;;;;;;;;;;;;;;13.88;80.48;101294.53;4939125;29;20009;-78
2023/07/22 02:30:41;;;;;;;;;;;;;;;13.87;79.73;101290.13;4939480;29;20005;-78
2023/07/22 02:33:07;;;;;;;;;;;;;;;13.87;80.11;101281.25;4939110;29;20007;-78
2023/07/22 02:35:33;;;;;;;;;;;;;;;13.88;80.19;101285.66;4939233;29;20533;-77
2023/07/22 02:37:58;;;;;;;;;;;;;;;13.85;77.91;101281.31;4956645;29;19941;-78
2023/07/22 02:40:23;;;;;;;;;;;;;;;13.83;79.09;101284.94;4938886;29;19919;-78
2023/07/22 02:42:49;;;;;;;;;;;;;;;13.76;79.64;101282.41;4939451;29;20025;-78
2023/07/22 02:45:15;;;;;;;;;;;;;;;13.71;79.27;101279.00;4927053;29;20298;-78
2023/07/22 02:47:40;;;;;;;;;;;;;;;13.64;80.59;101280.09;4938566;29;19923;-78
2023/07/22 02:50:06;;;;;;;;;;;;;;;13.57;80.74;101289.16;4956310;29;19923;-78
2023/07/22 02:52:32;;;;;;;;;;;;;;;13.51;79.42;101284.88;4906598;29;19931;-78
2023/07/22 02:55:11;;;;;;;;;;;;;;;13.47;79.51;101285.88;4925666;29;20264;-78
2023/07/22 02:57:37;;;;;;;;;;;;;;;13.46;79.62;101288.59;4953451;29;20465;-78
2023/07/22 03:00:11;;;;;;;;;;;;;;;13.42;79.80;101282.47;4938736;29;20057;-78
2023/07/22 03:02:40;;;;;;;;;;;;;;;13.38;79.30;101282.59;4921447;29;19926;-78
2023/07/22 03:05:07;;;;;;;;;;;;;;;13.33;79.78;101280.94;4912310;29;20381;-78
2023/07/22 03:07:37;;;;;;;;;;;;;;;13.29;80.24;101286.38;4955801;29;19918;-78
2023/07/22 03:10:03;;;;;;;;;;;;;;;13.27;79.77;101291.72;4921650;29;19923;-78
2023/07/22 03:12:28;;;;;;;;;;;;;;;13.27;82.38;101291.72;4916864;29;19922;-78
2023/07/22 03:14:54;;;;;;;;;;;;;;;13.31;80.83;101295.19;4923944;29;19923;-78
2023/07/22 03:17:19;;;;;;;;;;;;;;;13.33;81.23;101296.03;4912863;29;20421;-78
2023/07/22 03:19:45;;;;;;;;;;;;;;;13.29;80.77;101297.88;4952449;29;19919;-78
2023/07/22 03:22:11;;;;;;;;;;;;;;;13.25;80.96;101288.22;4955897;29;19924;-78
2023/07/22 03:24:37;;;;;;;;;;;;;;;13.22;79.52;101301.56;4877306;29;1800600;-78
2023/07/22 03:27:02;;;;;;;;;;;;;;;13.23;80.05;101307.75;4938589;29;19923;-78
2023/07/22 03:29:28;;;;;;;;;;;;;;;13.22;78.96;101301.56;4923625;29;20271;-78
2023/07/22 03:31:53;;;;;;;;;;;;;;;13.20;80.61;101302.53;4939275;29;19923;-78
2023/07/22 03:34:18;;;;;;;;;;;;;;;13.14;82.60;101300.91;4923464;29;19922;-78
2023/07/22 03:36:44;;;;;;;;;;;;;;;13.14;83.04;101298.25;4939391;29;19926;-78
2023/07/22 03:39:09;;;;;;;;;;;;;;;13.13;81.55;101305.34;4939332;29;19977;-78
2023/07/22 03:41:34;;;;;;;;;;;;;;;13.08;83.07;101295.72;4925584;29;20010;-78
2023/07/22 03:44:00;;;;;;;;;;;;;;;13.05;81.94;101295.81;4917037;29;20017;-78
2023/07/22 03:46:25;;;;;;;;;;;;;;;13.04;80.20;101299.38;4937100;29;20338;-78
2023/07/22 03:48:51;;;;;;;;;;;;;;;13.04;81.63;101299.38;4953020;29;20017;-78
2023/07/22 03:51:17;;;;;;;;;;;;;;;13.02;81.28;101299.41;4939068;29;19966;-78
2023/07/22 03:53:42;;;;;;;;;;;;;;;12.97;82.21;101300.44;4956055;29;19922;-77
2023/07/22 03:56:08;;;;;;;;;;;;;;;12.93;81.25;101299.63;4938913;29;20003;-78
2023/07/22 03:58:33;;;;;;;;;;;;;;;12.89;82.27;101301.50;4956077;28;19949;-78
2023/07/22 04:00:58;;;;;;;;;;;;;;;12.85;79.06;101297.16;4956155;29;19922;-78
2023/07/22 04:03:24;;;;;;;;;;;;;;;12.84;82.29;101297.22;4938840;29;19923;-79
2023/07/22 04:05:56;;;;;;;;;;;;;;;12.83;81.81;101304.31;4955886;29;19981;-78
2023/07/22 04:08:22;;;;;;;;;;;;;;;12.83;84.28;101300.75;4948450;29;20010;-78
2023/07/22 04:10:51;;;;;;;;;;;;;;;12.82;83.19;101307.00;4930564;29;20037;-81
2023/07/22 04:13:16;;;;;;;;;;;;;;;12.79;83.31;101305.28;4942199;29;19953;-81
2023/07/22 04:15:42;;;;;;;;;;;;;;;12.79;83.64;101296.47;4915221;29;20351;-82
2023/07/22 04:18:07;;;;;;;;;;;;;;;12.78;83.21;101295.56;4925877;29;19927;-81
2023/07/22 04:20:32;;;;;;;;;;;;;;;12.77;83.94;101301.78;4932647;29;20251;-82
2023/07/22 04:22:58;;;;;;;;;;;;;;;12.79;83.54;101301.78;4939906;29;19929;-82
2023/07/22 04:25:24;;;;;;;;;;;;;;;12.78;83.34;101313.28;4946664;28;19922;-82
2023/07/22 04:27:49;;;;;;;;;;;;;;;12.78;83.39;101311.50;4964973;28;19922;-82
2023/07/22 04:30:20;;;;;;;;;;;;;;;12.76;84.42;101312.44;4925845;29;20398;-82
2023/07/22 04:32:51;;;;;;;;;;;;;;;12.75;83.81;101306.28;4941086;29;19929;-82
2023/07/22 04:35:17;;;;;;;;;;;;;;;12.75;86.00;101303.59;4957331;29;19918;-82
2023/07/22 04:37:43;;;;;;;;;;;;;;;12.77;83.11;101315.09;4957801;29;19981;-82
2023/07/22 04:40:13;;;;;;;;;;;;;;;12.80;83.97;101309.69;4956975;29;19922;-82
2023/07/22 04:42:39;;;;;;;;;;;;;;;12.81;84.33;101313.22;4956621;29;19923;-82
2023/07/22 04:45:04;;;;;;;;;;;;;;;12.84;81.86;101310.50;4956053;29;20381;-82
2023/07/22 04:47:30;;;;;;;;;;;;;;;12.85;84.48;101317.56;4957283;28;19922;-82
2023/07/22 04:49:55;;;;;;;;;;;;;;;12.85;85.47;101314.91;4956411;28;19922;-81
2023/07/22 04:52:20;;;;;;;;;;;;;;;12.84;84.50;101308.72;4961049;28;19926;-81
2023/07/22 04:54:47;;;;;;;;;;;;;;;12.87;84.93;101313.94;4966369;28;20001;-82
2023/07/22 04:57:12;;;;;;;;;;;;;;;12.89;83.39;101313.94;4956862;29;19961;-82
2023/07/22 04:59:38;;;;;;;;;;;;;;;12.93;82.55;101317.38;4957375;29;19923;-82
2023/07/22 05:02:03;;;;;;;;;;;;;;;12.96;84.05;101311.97;4960357;28;19970;-82
2023/07/22 05:04:29;;;;;;;;;;;;;;;13.00;83.94;101311.88;4957484;29;19922;-82
2023/07/22 05:06:54;;;;;;;;;;;;;;;13.01;83.07;101312.75;4938754;29;20014;-82
2023/07/22 05:09:20;;;;;;;;;;;;;;;13.02;86.08;101315.38;4956184;29;19918;-81
2023/07/22 05:11:45;;;;;;;;;;;;;;;13.06;83.86;101317.03;4956805;29;19915;-82
2023/07/22 05:14:11;;;;;;;;;;;;;;;13.09;85.47;101319.63;4957625;29;20425;-81
2023/07/22 05:16:36;;;;;;;;;;;;;;;13.11;84.74;101308.97;4963851;28;19918;-82
2023/07/22 05:19:01;;;;;;;;;;;;;;;13.15;84.67;101315.94;4965830;28;19923;-81
2023/07/22 05:21:27;;;;;;;;;;;;;;;13.18;86.50;101314.97;4972277;28;19965;-82
2023/07/22 05:23:52;;;;;;;;;;;;;;;13.23;85.62;101311.31;4955782;29;20300;-81
2023/07/22 05:26:17;;;;;;;;;;;;;;;13.25;84.53;101320.13;4958396;28;19929;-80
2023/07/22 05:28:43;;;;;;;;;;;;;;;13.29;86.48;101315.63;4937333;29;19922;-80
2023/07/22 05:31:08;;;;;;;;;;;;;;;13.33;86.02;101318.19;4953731;29;19923;-80
2023/07/22 05:33:34;;;;;;;;;;;;;;;13.37;87.06;101318.09;4936851;29;19922;-80
2023/07/22 05:35:59;;;;;;;;;;;;;;;13.38;85.13;101325.16;4953918;29;19922;-80
2023/07/22 05:38:24;;;;;;;;;;;;;;;13.41;88.03;101320.63;4952144;28;19945;-80
2023/07/22 05:40:51;;;;;;;;;;;;;;;13.46;86.44;101321.38;4953760;29;19919;-80
2023/07/22 05:43:16;;;;;;;;;;;;;;;13.54;86.30;101316.72;4936517;29;20271;-80
2023/07/22 05:45:42;;;;;;;;;;;;;;;13.65;86.97;101329.78;4952217;28;19937;-76
2023/07/22 05:48:07;;;;;;;;;;;;;;;13.66;86.22;101323.50;4933438;29;19919;-75
2023/07/22 05:50:32;;;;;;;;;;;;;;;13.68;85.94;101327.00;4951267;29;19923;-80
2023/07/22 05:52:58;;;;;;;;;;;;;;;13.72;87.59;101322.47;4947391;28;19930;-81
2023/07/22 05:55:23;;;;;;;;;;;;;;;13.82;86.12;101315.97;4953604;29;19918;-81
2023/07/22 05:57:49;;;;;;;;;;;;;;;13.93;87.15;101308.56;4954321;28;20374;-76
2023/07/22 06:00:14;;;;;;;;;;;;;;;14.06;86.14;101305.56;4954938;28;19952;-76
2023/07/22 06:02:40;;;;;;;;;;;;;;;14.19;88.04;101309.59;4953881;29;19949;-76
2023/07/22 06:05:05;;;;;;;;;;;;;;;14.30;87.31;101307.50;4917018;29;20386;-76
2023/07/22 06:07:30;;;;;;;;;;;;;;;14.40;87.72;101311.63;4950482;29;19929;-75
2023/07/22 06:09:56;;;;;;;;;;;;;;;14.45;85.87;101303.50;4951986;28;20426;-76
2023/07/22 06:12:21;;;;;;;;;;;;;;;14.53;86.66;101309.50;4936533;29;19923;-75
2023/07/22 06:14:46;;;;;;;;;;;;;;;14.66;87.40;101306.44;4953618;29;20013;-76
2023/07/22 06:17:12;;;;;;;;;;;;;;;14.78;87.53;101304.25;4937324;29;19926;-81
2023/07/22 06:19:37;;;;;;;;;;;;;;;14.90;86.81;101312.81;4954208;29;20259;-82
2023/07/22 06:22:03;;;;;;;;;;;;;;;15.01;87.30;101308.00;4952940;28;19973;-81
2023/07/22 06:24:28;;;;;;;;;;;;;;;15.12;87.76;101308.50;4953797;29;20478;-82
2023/07/22 06:26:54;;;;;;;;;;;;;;;15.19;85.05;101310.06;4936793;29;19972;-81
2023/07/22 06:29:19;;;;;;;;;;;;;;;15.23;85.58;101309.03;4936400;29;19977;-81
2023/07/22 06:31:45;;;;;;;;;;;;;;;15.22;85.67;101299.25;4933675;29;20010;-81
2023/07/22 06:34:10;;;;;;;;;;;;;;;15.22;85.49;101299.25;4943850;29;19987;-81
2023/07/22 06:36:35;;;;;;;;;;;;;;;15.23;84.66;101306.38;4951939;29;20013;-81
2023/07/22 06:39:00;;;;;;;;;;;;;;;15.23;86.21;101293.03;4934840;29;19993;-81
2023/07/22 06:41:26;;;;;;;;;;;;;;;15.22;84.33;101299.25;4947252;29;20078;-81
2023/07/22 06:43:52;;;;;;;;;;;;;;;15.22;85.75;101293.06;4919600;29;20483;-77
2023/07/22 06:46:18;;;;;;;;;;;;;;;15.27;84.32;101293.78;4943896;29;19926;-81
2023/07/22 06:48:43;;;;;;;;;;;;;;;15.33;85.78;101288.25;4941215;29;19918;-81
2023/07/22 06:51:09;;;;;;;;;;;;;;;15.46;85.31;101281.53;4943406;29;19927;-81
2023/07/22 06:53:34;;;;;;;;;;;;;;;15.62;85.13;101281.84;4937837;29;20287;-81
2023/07/22 06:55:59;;;;;;;;;;;;;;;15.82;85.98;101275.81;4936463;29;19926;-81
2023/07/22 06:58:27;;;;;;;;;;;;;;;15.99;86.59;101275.22;4936419;29;19930;-81
2023/07/22 07:00:53;;;;;;;;;;;;;;;16.15;82.26;101278.19;4937927;29;19922;-81
2023/07/22 07:03:18;;;;;;;;;;;;;;;16.21;84.21;101282.41;4939858;29;19934;-81
2023/07/22 07:05:43;;;;;;;;;;;;;;;16.29;83.55;101281.19;4938147;29;20013;-81
2023/07/22 07:08:11;;;;;;;;;;;;;;;16.41;84.32;101282.50;4936651;29;20432;-81
2023/07/22 07:10:39;;;;;;;;;;;;;;;16.44;84.01;101282.38;4904203;29;19954;-81
2023/07/22 07:13:04;;;;;;;;;;;;;;;16.48;83.89;101285.81;4938970;29;19922;-81
2023/07/22 07:15:29;;;;;;;;;;;;;;;16.48;83.46;101289.34;4953512;29;20293;-77
2023/07/22 07:17:55;;;;;;;;;;;;;;;16.48;83.53;101284.00;4951141;29;19929;-77
2023/07/22 07:20:20;;;;;;;;;;;;;;;16.46;83.28;101288.53;4949035;29;20306;-81
2023/07/22 07:22:46;;;;;;;;;;;;;;;16.47;82.48;101286.78;4923960;29;19923;-81
2023/07/22 07:25:11;;;;;;;;;;;;;;;16.47;83.44;101282.28;4945665;29;19926;-81
2023/07/22 07:27:37;;;;;;;;;;;;;;;16.48;83.36;101286.69;4959691;28;19929;-81
2023/07/22 07:30:02;;;;;;;;;;;;;;;16.48;83.52;101283.16;4963794;28;19922;-81
2023/07/22 07:32:28;;;;;;;;;;;;;;;16.52;82.88;101280.28;4963441;28;19925;-81
2023/07/22 07:34:53;;;;;;;;;;;;;;;16.54;82.65;101277.53;4960446;28;19923;-81
2023/07/22 07:37:18;;;;;;;;;;;;;;;16.62;82.65;101279.94;4944243;29;19919;-81
2023/07/22 07:39:44;;;;;;;;;;;;;;;16.66;82.55;101286.88;4959882;29;19922;-81
2023/07/22 07:42:09;;;;;;;;;;;;;;;16.70;83.05;101283.16;4944670;29;19933;-81
2023/07/22 07:44:35;;;;;;;;;;;;;;;16.75;82.09;101282.03;4955597;28;19927;-81
2023/07/22 07:47:00;;;;;;;;;;;;;;;16.75;82.89;101284.72;4959793;29;19926;-81
2023/07/22 07:49:25;;;;;;;;;;;;;;;16.76;82.73;101288.25;4959423;28;19977;-81
2023/07/22 07:51:51;;;;;;;;;;;;;;;16.83;81.45;101288.91;4959213;29;19922;-81
2023/07/22 07:54:16;;;;;;;;;;;;;;;16.88;81.86;101285.09;4957789;29;20301;-81
2023/07/22 07:56:42;;;;;;;;;;;;;;;17.00;81.87;101280.19;4924080;29;20233;-81
2023/07/22 07:59:09;;;;;;;;;;;;;;;17.12;81.01;101285.91;4957338;29;19926;-81
2023/07/22 08:01:35;;;;;;;;;;;;;;;17.20;81.12;101285.56;4956125;28;20017;-81
2023/07/22 08:04:00;;;;;;;;;;;;;;;17.31;80.53;101280.66;4963661;28;19927;-81
2023/07/22 08:06:26;;;;;;;;;;;;;;;17.36;79.92;101286.69;4963295;28;19922;-81
2023/07/22 08:08:51;;;;;;;;;;;;;;;17.44;79.29;101285.47;4955840;29;19921;-81
2023/07/22 08:11:16;;;;;;;;;;;;;;;17.44;79.43;101290.84;4941453;29;19923;-80
2023/07/22 08:13:43;;;;;;;;;;;;;;;17.46;79.08;101287.16;4965924;28;19930;-81
2023/07/22 08:16:09;;;;;;;;;;;;;;;17.46;79.44;101287.16;4958643;28;19922;-81
2023/07/22 08:18:35;;;;;;;;;;;;;;;17.55;79.33;101289.41;4939285;29;19922;-80
2023/07/22 08:21:02;;;;;;;;;;;;;;;17.63;78.29;101297.13;4951699;28;20017;-81
2023/07/22 08:23:28;;;;;;;;;;;;;;;17.67;78.42;101293.34;4939689;29;19982;-81
2023/07/22 08:25:53;;;;;;;;;;;;;;;17.69;78.29;101288.81;4945022;29;19962;-81
2023/07/22 08:28:18;;;;;;;;;;;;;;;17.73;77.71;101289.53;4922843;29;20327;-81
2023/07/22 08:30:45;;;;;;;;;;;;;;;17.79;77.89;101291.94;4930472;29;20596;-81
2023/07/22 08:33:13;;;;;;;;;;;;;;;17.86;78.21;101292.59;4949493;29;19910;-81
2023/07/22 08:35:39;;;;;;;;;;;;;;;17.99;77.94;101286.59;4937346;29;19983;-81
2023/07/22 08:38:08;;;;;;;;;;;;;;;18.18;77.53;101289.28;4924592;29;19919;-80
2023/07/22 08:40:37;;;;;;;;;;;;;;;18.38;76.48;101293.72;4942159;29;19918;-80
2023/07/22 08:43:04;;;;;;;;;;;;;;;18.68;74.04;101287.81;4944438;29;20246;-81
2023/07/22 08:45:32;;;;;;;;;;;;;;;18.77;74.74;101286.53;4954112;29;19923;-80
2023/07/22 08:47:58;;;;;;;;;;;;;;;18.89;73.76;101286.81;4945822;29;19922;-80
2023/07/22 08:50:26;;;;;;;;;;;;;;;19.00;73.23;101291.63;4925983;29;20038;-81
2023/07/22 08:52:51;;;;;;;;;;;;;;;19.11;72.66;101289.31;4954569;29;20321;-81
2023/07/22 08:55:17;;;;;;;;;;;;;;;19.12;69.64;101285.66;4955049;29;19974;-81
2023/07/22 08:58:02;;;;;;;;;;;;;;;19.06;70.30;101294.00;4919152;29;19929;-80
2023/07/22 09:00:30;;;;;;;;;;;;;;;19.06;69.80;101301.19;4903624;29;19974;-80
2023/07/22 09:02:57;;;;;;;;;;;;;;;19.08;68.40;101294.78;4936183;29;19919;-80
2023/07/22 09:05:23;;;;;;;;;;;;;;;19.10;68.21;101298.28;4903492;29;19926;-80
2023/07/22 09:07:48;;;;;;;;;;;;;;;19.09;68.86;101291.19;4903236;29;19923;-80
2023/07/22 09:10:15;;;;;;;;;;;;;;;19.11;68.96;101296.47;4934526;29;20263;-80
2023/07/22 09:12:41;;;;;;;;;;;;;;;19.14;66.96;101290.97;4903414;29;19926;-80
2023/07/22 09:15:11;;;;;;;;;;;;;;;19.15;68.58;101286.44;4938186;29;19933;-80
2023/07/22 09:17:37;;;;;;;;;;;;;;;19.16;68.28;101281.00;4931561;29;20013;-80
2023/07/22 09:20:03;;;;;;;;;;;;;;;19.23;68.77;101289.59;4921481;29;19919;-79
2023/07/22 09:22:29;;;;;;;;;;;;;;;19.29;67.22;101289.31;4935995;29;19930;-80
2023/07/22 09:25:12;;;;;;;;;;;;;;;19.31;68.10;101292.75;4937541;29;19967;-80
2023/07/22 09:27:37;;;;;;;;;;;;;;;19.35;67.10;101272.88;4936195;29;19922;-79
2023/07/22 09:30:04;;;;;;;;;;;;;;;19.42;65.91;101284.16;4935670;29;19950;-79
2023/07/22 09:32:38;;;;;;;;;;;;;;;19.47;65.93;101279.44;4935979;29;19926;-79
2023/07/22 09:35:09;;;;;;;;;;;;;;;19.51;65.49;101283.66;4919977;29;19927;-79
2023/07/22 09:37:38;;;;;;;;;;;;;;;19.55;67.56;101275.38;4915660;29;19919;-79
2023/07/22 09:40:22;;;;;;;;;;;;;;;19.67;66.49;101273.91;4927914;29;19926;-80
2023/07/22 09:42:49;;;;;;;;;;;;;;;19.73;66.12;101276.28;4919576;29;19923;-80
2023/07/22 09:45:14;;;;;;;;;;;;;;;19.72;67.35;101274.53;4902960;29;20283;-79
2023/07/22 09:47:41;;;;;;;;;;;;;;;19.77;66.73;101272.47;4936109;29;19925;-79
2023/07/22 09:50:06;;;;;;;;;;;;;;;19.88;66.38;101279.06;4935610;29;19919;-79
2023/07/22 09:52:31;;;;;;;;;;;;;;;19.85;65.42;101266.66;4903410;29;20025;-79
2023/07/22 09:54:58;;;;;;;;;;;;;;;19.93;65.88;101269.84;4936127;29;19923;-79
2023/07/22 09:57:24;;;;;;;;;;;;;;;20.04;65.63;101269.22;4927977;29;19914;-79
2023/07/22 09:59:51;;;;;;;;;;;;;;;20.13;65.25;101255.28;4915658;29;19930;-79
2023/07/22 10:02:19;;;;;;;;;;;;;;;20.10;65.04;101260.84;4931659;29;20007;-79
2023/07/22 10:05:03;;;;;;;;;;;;;;;20.08;63.46;101260.06;4919103;29;20306;-81
2023/07/22 10:07:33;;;;;;;;;;;;;;;19.96;64.06;101256.22;4936028;29;20046;-79
2023/07/22 10:10:09;;;;;;;;;;;;;;;19.90;63.37;101269.97;4925330;29;19918;-79
2023/07/22 10:12:35;;;;;;;;;;;;;;;19.84;62.04;101264.94;4934680;29;20429;-79
2023/07/22 10:15:07;;;;;;;;;;;;;;;19.84;63.03;101269.47;4935373;29;20042;-79
2023/07/22 10:17:50;;;;;;;;;;;;;;;19.91;63.26;101269.03;4918714;29;20290;-80
2023/07/22 10:20:16;;;;;;;;;;;;;;;20.07;63.82;101262.81;4917592;29;19919;-79
2023/07/22 10:22:45;;;;;;;;;;;;;;;20.19;63.31;101268.38;4929084;29;20027;-79
2023/07/22 10:25:20;;;;;;;;;;;;;;;20.31;62.57;101271.34;4927417;29;19927;-79
2023/07/22 10:27:47;;;;;;;;;;;;;;;20.43;61.50;101257.22;4922500;29;19918;-79
2023/07/22 10:30:13;;;;;;;;;;;;;;;20.59;62.06;101255.41;4953315;29;20366;-79
2023/07/22 10:32:40;;;;;;;;;;;;;;;20.76;62.36;101261.66;4953207;29;19930;-80
2023/07/22 10:35:10;;;;;;;;;;;;;;;20.86;58.46;101262.00;4956417;29;20409;-79
2023/07/22 10:37:37;;;;;;;;;;;;;;;20.67;59.51;101264.88;4924865;29;20021;-78
2023/07/22 10:40:22;;;;;;;;;;;;;;;20.68;58.14;101263.94;4957888;29;20305;-79
2023/07/22 10:42:58;;;;;;;;;;;;;;;20.59;59.51;101259.94;4930230;29;19925;-78
2023/07/22 10:45:24;;;;;;;;;;;;;;;20.57;59.76;101261.84;4940821;29;20411;-79
2023/07/22 10:48:00;;;;;;;;;;;;;;;20.66;59.51;101257.75;4958515;29;19937;-79
2023/07/22 10:50:37;;;;;;;;;;;;;;;20.76;58.25;101253.59;4931538;29;20005;-79
2023/07/22 10:53:02;;;;;;;;;;;;;;;20.76;56.23;101251.75;4958434;29;19922;-79
2023/07/22 10:55:28;;;;;;;;;;;;;;;20.65;57.21;101256.00;4947996;29;19962;-78
2023/07/22 10:58:29;;;;;;;;;;;;;;;20.68;58.31;101259.41;4957916;29;19937;-79
2023/07/22 11:04:30;;;;;;;;;;;;;;;20.91;56.53;101243.75;4861679;29;20072;-77
2023/07/22 11:06:57;;;;;;;;;;;;;;;21.25;55.71;101248.84;4866703;29;20409;-79
2023/07/22 11:09:33;;;;;;;;;;;;;;;21.19;55.14;101248.34;4928385;29;19926;-78
2023/07/22 11:12:16;;;;;;;;;;;;;;;21.04;56.12;101248.31;4945663;29;20082;-78
2023/07/22 11:15:02;;;;;;;;;;;;;;;21.11;55.42;101242.56;4940851;29;19930;-78
2023/07/22 11:17:32;;;;;;;;;;;;;;;21.32;56.92;101237.72;4940049;29;19925;-78
2023/07/22 11:20:00;;;;;;;;;;;;;;;21.65;56.93;101232.97;4957206;28;19919;-79
2023/07/22 11:22:25;;;;;;;;;;;;;;;21.69;52.87;101239.06;4936562;29;19926;-78
2023/07/22 11:24:52;;;;;;;;;;;;;;;21.57;52.30;101232.59;4953622;29;19918;-79
2023/07/22 11:27:18;;;;;;;;;;;;;;;21.37;51.82;101238.31;4945712;29;19922;-79
2023/07/22 11:29:43;;;;;;;;;;;;;;;21.27;51.91;101233.47;4957168;28;19941;-78
2023/07/22 11:32:21;;;;;;;;;;;;;;;21.25;52.74;101235.38;4955849;29;20393;-78
2023/07/22 11:34:46;;;;;;;;;;;;;;;21.40;51.96;101222.84;4970882;28;20415;-78
2023/07/22 11:37:12;;;;;;;;;;;;;;;21.37;53.95;101219.44;4956736;29;19977;-79
2023/07/22 11:39:38;;;;;;;;;;;;;;;21.40;52.37;101225.53;4956852;29;19923;-79
2023/07/22 11:42:04;;;;;;;;;;;;;;;21.50;50.80;101223.16;4956892;29;19929;-79
2023/07/22 11:44:30;;;;;;;;;;;;;;;21.30;51.26;101232.41;4956446;28;19935;-78
2023/07/22 11:47:05;;;;;;;;;;;;;;;21.35;51.15;101216.84;4956878;29;19926;-79
2023/07/22 11:49:35;;;;;;;;;;;;;;;21.55;50.70;101209.41;4956786;28;20373;-77
2023/07/22 11:52:02;;;;;;;;;;;;;;;21.95;49.84;101214.97;4955121;29;19918;-78
2023/07/22 11:54:28;;;;;;;;;;;;;;;22.10;45.99;101220.22;4956404;29;19915;-79
2023/07/22 11:56:54;;;;;;;;;;;;;;;22.14;47.05;101220.06;4956414;28;19934;-78
2023/07/22 11:59:38;;;;;;;;;;;;;;;22.17;48.50;101217.16;4956265;29;19918;-78
2023/07/22 12:02:05;;;;;;;;;;;;;;;22.24;48.05;101218.53;4956201;29;19934;-78
2023/07/22 12:04:31;;;;;;;;;;;;;;;22.26;48.35;101217.47;4956334;29;19918;-79
2023/07/22 12:06:56;;;;;;;;;;;;;;;22.08;48.82;101197.91;4939139;29;19973;-78
2023/07/22 12:09:23;;;;;;;;;;;;;;;21.92;48.74;101199.84;4955951;29;19923;-79
2023/07/22 12:11:54;;;;;;;;;;;;;;;21.85;48.69;101203.91;4956873;29;20325;-78
2023/07/22 12:14:20;;;;;;;;;;;;;;;21.68;50.17;101210.34;4956361;29;20019;-79
2023/07/22 12:16:45;;;;;;;;;;;;;;;21.59;50.71;101203.72;4917134;29;20358;-78
2023/07/22 12:19:11;;;;;;;;;;;;;;;21.63;49.36;101197.16;4931926;29;19930;-78
2023/07/22 12:21:36;;;;;;;;;;;;;;;21.67;49.88;101204.09;4955744;29;20333;-78
2023/07/22 12:24:04;;;;;;;;;;;;;;;21.78;48.37;101197.16;4955459;29;19930;-78
2023/07/22 12:26:29;;;;;;;;;;;;;;;21.64;48.56;101190.81;4955257;29;19981;-78
2023/07/22 12:28:55;;;;;;;;;;;;;;;21.70;48.46;101200.34;4938229;29;20293;-78
2023/07/22 12:31:20;;;;;;;;;;;;;;;21.73;49.91;101193.91;4955224;29;20401;-78
2023/07/22 12:33:45;;;;;;;;;;;;;;;21.80;49.34;101195.25;4944897;29;19966;-79
2023/07/22 12:36:11;;;;;;;;;;;;;;;21.78;48.23;101187.25;4936279;29;19927;-79